createdAt,value
2022-11-07T00:01:52.799Z,7.22
2022-11-07T00:04:21.616Z,7.30
2022-11-07T00:06:53.193Z,7.36
2022-11-07T00:09:19.693Z,7.41
2022-11-07T00:11:46.344Z,7.44
2022-11-07T00:14:19.654Z,7.46
2022-11-07T00:16:50.161Z,7.46
2022-11-07T00:19:19.508Z,7.49
2022-11-07T00:21:46.374Z,7.50
2022-11-07T00:24:20.343Z,7.48
2022-11-07T00:26:47.710Z,7.50
2022-11-07T00:29:16.415Z,7.54
2022-11-07T00:31:43.006Z,7.57
2022-11-07T00:34:12.584Z,7.55
2022-11-07T00:36:41.569Z,7.58
2022-11-07T00:39:11.433Z,7.60
2022-11-07T00:41:40.310Z,7.60
2022-11-07T00:44:06.887Z,7.62
2022-11-07T00:46:33.545Z,7.64
2022-11-07T00:49:04.651Z,7.65
2022-11-07T00:51:32.082Z,7.66
2022-11-07T00:53:58.638Z,7.66
2022-11-07T00:56:26.039Z,7.69
2022-11-07T00:58:59.821Z,7.71
2022-11-07T01:01:34.310Z,7.71
2022-11-07T01:04:19.957Z,7.77
2022-11-07T01:06:47.062Z,7.72
2022-11-07T01:09:19.662Z,7.77
2022-11-07T01:11:47.328Z,7.79
2022-11-07T01:14:16.315Z,7.83
2022-11-07T01:16:43.148Z,7.82
2022-11-07T01:19:11.011Z,7.81
2022-11-07T01:21:42.343Z,7.82
2022-11-07T01:24:10.533Z,7.82
2022-11-07T01:26:40.259Z,7.82
2022-11-07T01:29:12.654Z,7.75
2022-11-07T01:31:41.736Z,7.68
2022-11-07T01:34:08.692Z,7.61
2022-11-07T01:36:37.434Z,7.52
2022-11-07T01:39:05.926Z,7.47
2022-11-07T01:41:35.586Z,7.40
2022-11-07T01:44:23.622Z,7.38
2022-11-07T01:46:54.719Z,7.30
2022-11-07T01:49:29.572Z,7.26
2022-11-07T01:51:59.732Z,7.23
2022-11-07T01:54:31.027Z,7.18
2022-11-07T01:57:05.455Z,7.17
2022-11-07T01:59:34.301Z,7.12
2022-11-07T02:02:01.146Z,7.13
2022-11-07T02:04:30.342Z,7.10
2022-11-07T02:07:05.658Z,7.13
2022-11-07T02:09:34.780Z,7.11
2022-11-07T02:12:01.733Z,7.08
2022-11-07T02:14:35.623Z,7.02
2022-11-07T02:17:02.188Z,6.98
2022-11-07T02:19:43.460Z,6.96
2022-11-07T02:22:32.107Z,6.92
2022-11-07T02:25:04.580Z,6.87
2022-11-07T02:27:36.896Z,6.84
2022-11-07T02:30:13.278Z,6.82
2022-11-07T02:32:40.298Z,6.77
2022-11-07T02:35:40.423Z,6.74
2022-11-07T02:38:13.046Z,6.67
2022-11-07T02:40:40.345Z,6.60
2022-11-07T02:43:09.897Z,6.60
2022-11-07T02:45:45.721Z,6.54
2022-11-07T02:48:14.984Z,6.46
2022-11-07T02:50:44.245Z,6.38
2022-11-07T02:53:10.799Z,6.36
2022-11-07T02:55:42.123Z,6.35
2022-11-07T02:58:08.670Z,6.32
2022-11-07T03:00:37.751Z,6.31
2022-11-07T03:03:04.385Z,6.27
2022-11-07T03:05:30.931Z,6.24
2022-11-07T03:07:59.753Z,6.23
2022-11-07T03:10:28.568Z,6.22
2022-11-07T03:12:57.341Z,6.23
2022-11-07T03:15:31.202Z,6.23
2022-11-07T03:17:59.376Z,6.26
2022-11-07T03:20:25.912Z,6.17
2022-11-07T03:22:52.444Z,6.02
2022-11-07T03:25:21.063Z,6.08
2022-11-07T03:27:50.733Z,6.04
2022-11-07T03:30:20.286Z,6.05
2022-11-07T03:32:46.887Z,6.13
2022-11-07T03:35:13.819Z,6.25
2022-11-07T03:37:44.544Z,6.25
2022-11-07T03:40:11.318Z,6.23
2022-11-07T03:42:39.446Z,6.20
2022-11-07T03:45:07.366Z,6.22
2022-11-07T03:47:36.385Z,6.11
2022-11-07T03:50:04.268Z,5.84
2022-11-07T03:52:33.254Z,5.85
2022-11-07T03:55:02.160Z,6.02
2022-11-07T03:57:28.683Z,6.10
2022-11-07T03:59:55.171Z,5.99
2022-11-07T04:02:23.486Z,5.87
2022-11-07T04:04:50.299Z,5.84
2022-11-07T04:07:16.854Z,5.78
2022-11-07T04:09:43.347Z,5.94
2022-11-07T04:12:31.644Z,6.07
2022-11-07T04:15:19.015Z,6.16
2022-11-07T04:17:45.576Z,6.23
2022-11-07T04:20:12.238Z,6.11
2022-11-07T04:22:38.748Z,5.93
2022-11-07T04:25:05.758Z,5.84
2022-11-07T04:27:44.198Z,5.90
2022-11-07T04:30:26.852Z,6.03
2022-11-07T04:33:00.692Z,6.12
2022-11-07T04:35:35.471Z,6.16
2022-11-07T04:38:04.321Z,6.18
2022-11-07T04:40:35.842Z,5.85
2022-11-07T04:43:09.112Z,5.66
2022-11-07T04:45:39.850Z,5.70
2022-11-07T04:48:10.773Z,5.77
2022-11-07T04:50:37.285Z,5.69
2022-11-07T04:53:03.791Z,5.60
2022-11-07T04:55:32.893Z,5.57
2022-11-07T04:58:01.747Z,5.53
2022-11-07T05:00:28.292Z,5.39
2022-11-07T05:02:57.340Z,5.37
2022-11-07T05:05:23.958Z,5.31
2022-11-07T05:07:50.543Z,5.29
2022-11-07T05:10:25.071Z,5.32
2022-11-07T05:12:51.736Z,5.40
2022-11-07T05:15:20.728Z,5.14
2022-11-07T05:17:47.360Z,5.02
2022-11-07T05:20:30.728Z,5.16
2022-11-07T05:23:13.644Z,5.24
2022-11-07T05:25:56.859Z,5.05
2022-11-07T05:28:33.955Z,5.17
2022-11-07T05:31:08.850Z,5.25
2022-11-07T05:33:35.960Z,5.24
2022-11-07T05:36:13.973Z,5.24
2022-11-07T05:38:44.290Z,5.26
2022-11-07T05:41:11.511Z,5.24
2022-11-07T05:43:38.760Z,5.28
2022-11-07T05:46:08.301Z,5.23
2022-11-07T05:48:35.489Z,5.19
2022-11-07T05:51:02.416Z,5.18
2022-11-07T05:53:29.134Z,5.08
2022-11-07T05:55:55.803Z,5.07
2022-11-07T05:58:23.339Z,5.09
2022-11-07T06:00:52.257Z,5.11
2022-11-07T06:03:22.660Z,5.06
2022-11-07T06:05:49.339Z,5.01
2022-11-07T06:08:16.036Z,5.05
2022-11-07T06:10:44.852Z,5.05
2022-11-07T06:13:16.778Z,5.08
2022-11-07T06:15:44.928Z,5.09
2022-11-07T06:18:15.469Z,5.06
2022-11-07T06:20:44.795Z,5.10
2022-11-07T06:23:11.941Z,5.11
2022-11-07T06:25:43.443Z,5.09
2022-11-07T06:28:11.769Z,5.08
2022-11-07T06:30:38.638Z,5.06
2022-11-07T06:33:13.816Z,5.08
2022-11-07T06:35:43.492Z,5.06
2022-11-07T06:38:11.794Z,5.08
2022-11-07T06:40:39.856Z,4.94
2022-11-07T06:43:07.535Z,4.88
2022-11-07T06:45:37.502Z,5.02
2022-11-07T06:48:07.316Z,5.03
2022-11-07T06:50:37.604Z,5.06
2022-11-07T06:53:06.784Z,5.08
2022-11-07T06:55:34.495Z,5.17
2022-11-07T06:58:06.526Z,5.16
2022-11-07T07:00:35.556Z,5.27
2022-11-07T07:03:04.881Z,5.18
2022-11-07T07:05:33.348Z,6.41
2022-11-07T07:07:59.892Z,6.01
2022-11-07T07:10:28.744Z,6.28
2022-11-07T07:12:58.049Z,6.32
2022-11-07T07:15:24.792Z,5.83
2022-11-07T07:17:58.550Z,5.88
2022-11-07T07:20:25.088Z,5.91
2022-11-07T07:22:57.793Z,5.83
2022-11-07T07:25:29.241Z,5.69
2022-11-07T07:27:55.787Z,5.78
2022-11-07T07:30:24.541Z,5.84
2022-11-07T07:32:51.441Z,5.75
2022-11-07T07:35:18.018Z,5.82
2022-11-07T07:37:51.086Z,5.98
2022-11-07T07:40:18.905Z,6.10
2022-11-07T07:42:50.250Z,6.14
2022-11-07T07:45:19.526Z,6.25
2022-11-07T07:47:46.100Z,6.39
2022-11-07T07:50:16.118Z,6.49
2022-11-07T07:52:42.626Z,6.57
2022-11-07T07:55:12.405Z,6.70
2022-11-07T07:57:44.991Z,6.72
2022-11-07T08:00:14.243Z,6.86
2022-11-07T08:02:44.346Z,6.99
2022-11-07T08:05:20.045Z,7.14
2022-11-07T08:07:51.548Z,6.96
2022-11-07T08:13:08.357Z,7.07
2022-11-07T08:15:34.996Z,7.09
2022-11-07T08:18:02.869Z,7.05
2022-11-07T08:20:32.405Z,7.13
2022-11-07T08:23:15.773Z,7.22
2022-11-07T08:25:54.005Z,7.21
2022-11-07T08:28:22.240Z,7.26
2022-11-07T08:31:20.454Z,7.46
2022-11-07T08:33:47.077Z,7.57
2022-11-07T08:36:16.187Z,7.71
2022-11-07T08:38:42.657Z,7.79
2022-11-07T08:41:09.210Z,7.81
2022-11-07T08:43:35.785Z,7.80
2022-11-07T08:46:02.374Z,7.87
2022-11-07T08:48:28.925Z,7.89
2022-11-07T08:50:57.392Z,7.95
2022-11-07T08:53:25.254Z,8.10
2022-11-07T08:55:52.294Z,8.19
2022-11-07T08:58:19.456Z,8.26
2022-11-07T09:00:46.320Z,8.33
2022-11-07T09:06:00.627Z,8.37
2022-11-07T09:08:27.135Z,8.45
2022-11-07T09:10:53.761Z,8.55
2022-11-07T09:13:25.076Z,8.65
2022-11-07T09:15:59.216Z,8.65
2022-11-07T09:18:32.099Z,8.70
2022-11-07T09:21:01.535Z,8.71
2022-11-07T09:23:28.214Z,8.94
2022-11-07T09:25:54.892Z,9.13
2022-11-07T09:28:23.887Z,9.22
2022-11-07T09:30:57.873Z,9.20
2022-11-07T09:33:27.647Z,9.35
2022-11-07T09:35:54.867Z,9.28
2022-11-07T09:38:25.940Z,9.39
2022-11-07T09:41:19.435Z,9.53
2022-11-07T09:44:06.863Z,9.76
2022-11-07T09:46:49.005Z,9.77
2022-11-07T09:49:20.296Z,9.79
2022-11-07T09:52:11.372Z,9.76
2022-11-07T09:54:46.849Z,9.87
2022-11-07T09:57:18.888Z,9.95
2022-11-07T10:00:00.510Z,10.07
2022-11-07T10:02:40.822Z,9.94
2022-11-07T10:05:15.396Z,10.12
2022-11-07T10:07:59.825Z,10.34
2022-11-07T10:11:03.964Z,10.24
2022-11-07T10:13:59.568Z,10.24
2022-11-07T10:16:37.367Z,10.34
2022-11-07T10:19:21.654Z,10.49
2022-11-07T10:22:09.552Z,10.48
2022-11-07T10:24:50.601Z,10.62
2022-11-07T10:27:20.348Z,10.59
2022-11-07T10:29:51.109Z,10.81
2022-11-07T10:32:35.015Z,10.86
2022-11-07T10:35:28.349Z,10.95
2022-11-07T10:37:57.538Z,10.97
2022-11-07T10:40:35.826Z,10.96
2022-11-07T10:43:09.975Z,10.89
2022-11-07T10:45:39.137Z,10.97
2022-11-07T10:48:12.452Z,10.92
2022-11-07T10:50:39.008Z,11.32
2022-11-07T10:53:09.637Z,11.22
2022-11-07T10:55:47.688Z,11.14
2022-11-07T10:58:21.777Z,11.22
2022-11-07T11:01:23.571Z,11.17
2022-11-07T11:03:50.208Z,11.37
2022-11-07T11:06:19.485Z,11.52
2022-11-07T11:08:48.105Z,11.49
2022-11-07T11:11:23.590Z,11.43
2022-11-07T11:14:06.097Z,11.38
2022-11-07T11:16:40.077Z,11.38
2022-11-07T11:19:22.321Z,11.38
2022-11-07T11:21:54.238Z,11.36
2022-11-07T11:24:29.945Z,11.47
2022-11-07T11:27:01.457Z,11.51
2022-11-07T11:29:40.556Z,11.81
2022-11-07T11:32:21.310Z,12.03
2022-11-07T11:35:04.681Z,11.89
2022-11-07T11:37:38.767Z,11.73
2022-11-07T11:40:36.051Z,12.26
2022-11-07T11:43:11.989Z,12.03
2022-11-07T11:46:00.392Z,12.01
2022-11-07T11:48:41.784Z,12.11
2022-11-07T11:51:28.782Z,12.01
2022-11-07T11:53:55.314Z,11.97
2022-11-07T11:56:30.883Z,12.05
2022-11-07T11:59:06.361Z,12.00
2022-11-07T12:01:57.683Z,11.95
2022-11-07T12:04:46.871Z,11.90
2022-11-07T12:07:31.462Z,12.05
2022-11-07T12:10:03.488Z,11.99
2022-11-07T12:13:01.220Z,12.22
2022-11-07T12:15:47.973Z,12.61
2022-11-07T12:18:37.699Z,12.62
2022-11-07T12:21:32.948Z,12.61
2022-11-07T12:24:15.392Z,12.70
2022-11-07T12:26:41.941Z,12.86
2022-11-07T12:29:33.609Z,12.66
2022-11-07T12:32:08.791Z,12.84
2022-11-07T12:34:44.133Z,13.07
2022-11-07T12:37:45.153Z,12.94
2022-11-07T12:40:17.587Z,13.08
2022-11-07T12:43:00.138Z,13.02
2022-11-07T12:45:34.892Z,13.04
2022-11-07T12:48:27.927Z,13.19
2022-11-07T12:51:15.207Z,13.42
2022-11-07T12:54:03.243Z,13.34
2022-11-07T12:56:37.686Z,13.26
2022-11-07T12:59:11.949Z,13.17
2022-11-07T13:01:49.667Z,12.97
2022-11-07T13:04:27.019Z,12.94
2022-11-07T13:07:13.232Z,13.08
2022-11-07T13:09:54.175Z,13.24
2022-11-07T13:12:41.828Z,13.29
2022-11-07T13:15:14.159Z,13.23
2022-11-07T13:17:43.603Z,13.16
2022-11-07T13:20:24.597Z,13.22
2022-11-07T13:22:59.035Z,13.17
2022-11-07T13:25:34.933Z,13.35
2022-11-07T13:28:05.344Z,13.36
2022-11-07T13:30:40.032Z,13.38
2022-11-07T13:33:07.309Z,13.59
2022-11-07T13:35:37.324Z,13.46
2022-11-07T13:38:20.248Z,13.35
2022-11-07T13:40:49.804Z,13.30
2022-11-07T13:43:37.966Z,13.31
2022-11-07T13:46:06.996Z,13.39
2022-11-07T13:48:45.521Z,13.32
2022-11-07T13:51:24.506Z,13.21
2022-11-07T13:54:27.636Z,13.36
2022-11-07T13:57:01.458Z,13.30
2022-11-07T13:59:30.332Z,13.25
2022-11-07T14:02:01.419Z,13.23
2022-11-07T14:04:32.119Z,13.29
2022-11-07T14:07:06.642Z,13.35
2022-11-07T14:09:36.554Z,13.37
2022-11-07T14:12:05.711Z,13.43
2022-11-07T14:14:34.511Z,13.49
2022-11-07T14:17:03.316Z,13.43
2022-11-07T14:19:34.572Z,13.40
2022-11-07T14:22:03.503Z,13.31
2022-11-07T14:24:35.334Z,13.18
2022-11-07T14:27:03.219Z,13.13
2022-11-07T14:29:29.889Z,13.10
2022-11-07T14:32:04.882Z,13.19
2022-11-07T14:34:35.441Z,13.20
2022-11-07T14:37:06.272Z,13.23
2022-11-07T14:39:35.180Z,13.23
2022-11-07T14:42:03.765Z,13.26
2022-11-07T14:44:54.325Z,13.29
2022-11-07T14:47:31.868Z,13.29
2022-11-07T14:50:03.170Z,13.26
2022-11-07T14:52:37.089Z,13.27
2022-11-07T14:55:20.457Z,13.22
2022-11-07T14:57:47.934Z,13.34
2022-11-07T15:00:16.791Z,13.27
2022-11-07T15:02:46.854Z,13.16
2022-11-07T15:05:31.379Z,13.07
2022-11-07T15:07:59.478Z,12.94
2022-11-07T15:10:39.035Z,12.90
2022-11-07T15:13:21.823Z,12.82
2022-11-07T15:16:14.091Z,12.81
2022-11-07T15:18:47.086Z,12.77
2022-11-07T15:21:37.270Z,12.72
2022-11-07T15:24:41.201Z,12.65
2022-11-07T15:27:15.832Z,12.52
2022-11-07T15:29:54.317Z,12.54
2022-11-07T15:32:23.541Z,12.43
2022-11-07T15:37:41.257Z,12.12
2022-11-07T15:40:19.004Z,12.11
2022-11-07T15:42:48.310Z,11.98
2022-11-07T15:45:17.090Z,11.89
2022-11-07T15:47:43.884Z,11.72
2022-11-07T15:50:18.129Z,11.65
2022-11-07T15:52:48.540Z,11.59
2022-11-07T15:55:19.269Z,11.47
2022-11-07T15:57:50.556Z,11.65
2022-11-07T16:00:20.017Z,11.56
2022-11-07T16:02:49.200Z,11.47
2022-11-07T16:05:16.323Z,11.52
2022-11-07T16:07:44.693Z,11.57
2022-11-07T16:10:21.668Z,11.61
2022-11-07T16:12:51.721Z,11.61
2022-11-07T16:15:26.077Z,11.59
2022-11-07T16:17:58.524Z,11.55
2022-11-07T16:20:27.353Z,11.54
2022-11-07T16:22:53.874Z,11.48
2022-11-07T16:25:24.682Z,11.35
2022-11-07T16:27:54.106Z,11.20
2022-11-07T16:30:23.338Z,11.04
2022-11-07T16:32:52.276Z,10.90
2022-11-07T16:35:21.116Z,10.74
2022-11-07T16:37:47.684Z,10.55
2022-11-07T16:40:19.665Z,10.55
2022-11-07T16:42:50.955Z,10.45
2022-11-07T16:45:20.531Z,10.53
2022-11-07T16:47:49.460Z,10.56
2022-11-07T16:50:16.993Z,10.45
2022-11-07T16:52:43.506Z,10.50
2022-11-07T16:55:20.625Z,10.45
2022-11-07T16:57:49.532Z,10.48
2022-11-07T17:00:19.340Z,10.44
2022-11-07T17:02:46.250Z,10.32
2022-11-07T17:05:12.934Z,10.17
2022-11-07T17:07:42.033Z,10.12
2022-11-07T17:10:15.154Z,9.93
2022-11-07T17:12:41.725Z,9.80
2022-11-07T17:15:11.102Z,10.07
2022-11-07T17:17:38.121Z,9.87
2022-11-07T17:20:06.191Z,9.89
2022-11-07T17:22:32.715Z,9.82
2022-11-07T17:24:59.234Z,9.81
2022-11-07T17:27:28.821Z,10.04
2022-11-07T17:29:55.490Z,10.04
2022-11-07T17:32:22.060Z,9.96
2022-11-07T17:35:10.539Z,9.79
2022-11-07T17:37:35.736Z,9.61
2022-11-07T17:40:02.420Z,9.58
2022-11-07T17:42:31.544Z,9.56
2022-11-07T17:45:00.313Z,9.50
2022-11-07T17:47:34.400Z,9.55
2022-11-07T17:50:03.562Z,9.41
2022-11-07T17:52:32.586Z,9.36
2022-11-07T17:54:59.123Z,9.30
2022-11-07T17:57:25.652Z,9.18
2022-11-07T17:59:55.378Z,8.87
2022-11-07T18:02:24.659Z,8.95
2022-11-07T18:04:51.415Z,8.92
2022-11-07T18:07:20.442Z,8.89
2022-11-07T18:09:53.028Z,8.92
2022-11-07T18:12:21.886Z,8.89
2022-11-07T18:14:50.746Z,8.90
2022-11-07T18:17:20.809Z,8.98
2022-11-07T18:19:52.387Z,8.98
2022-11-07T18:22:21.235Z,9.10
2022-11-07T18:24:52.497Z,9.08
2022-11-07T18:27:19.118Z,8.98
2022-11-07T18:29:48.121Z,9.03
2022-11-07T18:32:19.532Z,9.01
2022-11-07T18:34:48.521Z,8.98
2022-11-07T18:37:18.824Z,9.00
2022-11-07T18:39:45.386Z,8.84
2022-11-07T18:42:11.986Z,8.96
2022-11-07T18:44:38.868Z,8.73
2022-11-07T18:47:08.200Z,8.53
2022-11-07T18:49:34.788Z,8.52
2022-11-07T18:52:03.651Z,8.54
2022-11-07T18:54:30.265Z,8.65
2022-11-07T18:56:56.794Z,8.54
2022-11-07T18:59:25.637Z,8.43
2022-11-07T19:01:52.322Z,8.42
2022-11-07T19:04:21.452Z,8.35
2022-11-07T19:07:02.196Z,8.29
2022-11-07T19:09:33.174Z,8.32
2022-11-07T19:12:00.948Z,8.29
2022-11-07T19:14:33.428Z,8.18
2022-11-07T19:17:00.176Z,8.11
2022-11-07T19:19:26.878Z,8.17
2022-11-07T19:21:55.593Z,8.06
2022-11-07T19:24:22.160Z,8.08
2022-11-07T19:26:50.762Z,8.06
2022-11-07T19:29:17.381Z,8.05
2022-11-07T19:31:44.079Z,8.07
2022-11-07T19:34:13.321Z,7.99
2022-11-07T19:36:39.860Z,7.93
2022-11-07T19:39:08.739Z,7.86
2022-11-07T19:41:37.770Z,7.79
2022-11-07T19:44:08.855Z,7.67
2022-11-07T19:46:35.372Z,7.57
2022-11-07T19:49:02.178Z,7.53
2022-11-07T19:51:31.090Z,7.59
2022-11-07T19:54:01.970Z,7.61
2022-11-07T19:56:32.233Z,7.61
2022-11-07T19:59:02.198Z,7.64
2022-11-07T20:01:34.396Z,7.69
2022-11-07T20:04:04.046Z,7.72
2022-11-07T20:06:39.027Z,7.77
2022-11-07T20:09:09.271Z,7.76
2022-11-07T20:11:36.246Z,7.73
2022-11-07T20:14:03.989Z,7.85
2022-11-07T20:16:31.814Z,7.73
2022-11-07T20:18:58.440Z,7.65
2022-11-07T20:21:29.094Z,7.57
2022-11-07T20:24:00.339Z,7.44
2022-11-07T20:26:28.696Z,7.43
2022-11-07T20:28:57.548Z,7.30
2022-11-07T20:31:27.435Z,7.11
2022-11-07T20:33:56.841Z,7.02
2022-11-07T20:36:26.644Z,6.84
2022-11-07T20:38:58.598Z,6.86
2022-11-07T20:41:28.522Z,6.86
2022-11-07T20:44:03.889Z,6.90
2022-11-07T20:46:34.188Z,6.87
2022-11-07T20:49:07.870Z,6.86
2022-11-07T20:51:39.489Z,6.89
2022-11-07T20:54:11.076Z,6.89
2022-11-07T20:56:39.706Z,6.83
2022-11-07T20:59:09.614Z,6.82
2022-11-07T21:01:38.844Z,6.75
2022-11-07T21:04:13.236Z,6.72
2022-11-07T21:06:39.988Z,6.70
2022-11-07T21:09:09.491Z,6.70
2022-11-07T21:11:36.469Z,6.62
2022-11-07T21:14:06.101Z,6.56
2022-11-07T21:16:34.571Z,6.55
2022-11-07T21:19:06.772Z,6.56
2022-11-07T21:21:35.887Z,6.61
2022-11-07T21:24:05.146Z,6.67
2022-11-07T21:26:35.604Z,6.69
2022-11-07T21:29:10.996Z,6.64
2022-11-07T21:31:41.875Z,6.63
2022-11-07T21:34:11.015Z,6.62
2022-11-07T21:36:40.073Z,6.54
2022-11-07T21:39:10.079Z,6.50
2022-11-07T21:41:38.175Z,6.33
2022-11-07T21:44:10.234Z,6.18
2022-11-07T21:46:36.745Z,5.97
2022-11-07T21:49:04.959Z,6.17
2022-11-07T21:51:35.235Z,6.23
2022-11-07T21:54:03.873Z,5.97
2022-11-07T21:56:35.066Z,6.04
2022-11-07T21:59:04.884Z,6.10
2022-11-07T22:01:38.317Z,6.12
2022-11-07T22:04:12.976Z,6.11
2022-11-07T22:06:45.178Z,6.12
2022-11-07T22:09:20.825Z,6.06
2022-11-07T22:11:52.232Z,6.04
2022-11-07T22:14:21.401Z,6.04
2022-11-07T22:16:51.482Z,5.96
2022-11-07T22:19:18.652Z,6.00
2022-11-07T22:21:50.764Z,5.94
2022-11-07T22:24:17.534Z,5.94
2022-11-07T22:26:44.068Z,5.92
2022-11-07T22:29:12.725Z,5.92
2022-11-07T22:31:39.243Z,5.80
2022-11-07T22:34:08.308Z,5.89
2022-11-07T22:36:34.900Z,5.87
2022-11-07T22:39:01.508Z,5.80
2022-11-07T22:41:29.423Z,5.78
2022-11-07T22:43:59.239Z,5.84
2022-11-07T22:46:30.678Z,5.91
2022-11-07T22:49:00.655Z,5.70
2022-11-07T22:51:30.654Z,5.82
2022-11-07T22:53:58.474Z,5.85
2022-11-07T22:56:25.282Z,5.87
2022-11-07T22:58:51.944Z,5.84
2022-11-07T23:01:21.547Z,5.80
2022-11-07T23:03:56.992Z,5.83
2022-11-07T23:06:24.728Z,5.77
2022-11-07T23:08:57.076Z,5.73
2022-11-07T23:11:46.385Z,5.78
2022-11-07T23:14:18.232Z,5.71
2022-11-07T23:16:50.903Z,5.76
2022-11-07T23:19:24.370Z,5.68
2022-11-07T23:21:53.437Z,5.62
2022-11-07T23:24:20.850Z,5.38
2022-11-07T23:26:48.365Z,5.34
2022-11-07T23:29:17.862Z,5.48
2022-11-07T23:31:46.994Z,5.46
2022-11-07T23:34:19.294Z,5.40
2022-11-07T23:36:45.875Z,5.42
2022-11-07T23:39:21.021Z,5.42
2022-11-07T23:41:47.921Z,5.43
2022-11-07T23:44:17.444Z,5.30
2022-11-07T23:47:02.994Z,5.28
2022-11-07T23:49:48.398Z,5.29
2022-11-07T23:52:15.512Z,5.18
2022-11-07T23:55:00.797Z,5.21
2022-11-07T23:57:27.354Z,5.12
